Forside
METAR-TAF:

METAR-TAF

Lufthavne :

Moline, Illinois, USA

Breddekreds: 41-27-05N, længdekreds: 090-30-53W, højde: 179 m

Aktuelle vejr

Denne rapport blev lavet for 1 time og 5 minutter siden, kl. 23:52 UTC
Vind 11 kt fra nordnordvest med vindstød på up til 19 kt
Temperatur 21°C
Fugtighed 38%
Tryk 1013 hPa
Sigt: 16.1 km
Spredte skyer i en højde af 7000 ft

METAR: KMLI 212352Z 33011G19KT 10SM SCT070 21/06 A2990 RMK AO2 PK WND 31027/2302 SLP123 T02110056 10239 20211 53011

Tid: 19:57 (00:57 UTC)

Vejrudsigter

Denne rapport blev lavet for 1 time og 37 minutter siden, kl. 23:20 UTC
Foreløbig gælder fra 22 på 00 UTC til 22 på 24 UTC
Vind 15 kt fra nordvest med vindstød på up til 24 kt
Sigt: 10 km
Spredte skyer i en højde af 6000 ft
Fra 22 på 0200 UTC
Vind 4 kt fra nordvest
Sigt: 10 km
skyfri
Fra 22 på 1500 UTC
Vind 10 kt fra sydsydvest
Sigt: 10 km
Spredte skyer i en højde af 5000 ft

TAF: KMLI 212320Z 2200/2224 32015G24KT P6SM SCT060 FM220200 31004KT P6SM SKC FM221500 21010KT P6SM SCT050

Vejrobservationer og prognoser fra mere end 4000 lufthavne (METAR og TAF).

De gule og røde prikker repræsenterer de meteorologiske stationer.

Flyt musen over at se navnet på stationen.

Så klik over at se vejr observationer og prognoser.

At skifte det kort: Klik på de grønne knapper med et sort kors for at zoome ind; på den grønne knap med en bindestreg for at zoome ud; eller på de grønne pile for tilstødende kort.


METAR-TAF: